Time,TemperatureF,DewpointF,PressureIn,WindDirection,WindDirectionDegrees,WindSpeedMPH,WindSpeedGustMPH,Humidity,HourlyPrecipIn,Conditions,Clouds,dailyrainin,SoftwareType,DateUTC
2013-06-25 00:02:00,53.8,49.1,30.31,West,280,0.0,2.0,84,0.00,,,0.00,meteohub,2013-06-24 23:02:00,
2013-06-25 00:07:00,54.0,49.3,30.31,West,280,0.0,2.0,84,0.00,,,0.00,meteohub,2013-06-24 23:07:00,
2013-06-25 00:12:00,54.0,49.3,30.31,West,280,0.0,1.0,84,0.00,,,0.00,meteohub,2013-06-24 23:12:00,
2013-06-25 00:20:00,54.0,49.3,30.30,West,280,0.0,1.0,84,0.00,,,0.00,meteohub,2013-06-24 23:20:00,
2013-06-25 00:27:00,54.0,49.3,30.31,West,280,0.0,1.0,84,0.00,,,0.00,meteohub,2013-06-24 23:27:00,
2013-06-25 00:32:00,54.1,49.5,30.30,West,280,0.0,1.0,84,0.00,,,0.00,meteohub,2013-06-24 23:32:00,
2013-06-25 00:40:00,54.1,49.5,30.31,West,280,0.0,2.0,84,0.00,,,0.00,meteohub,2013-06-24 23:40:00,
2013-06-25 00:47:00,54.0,49.3,30.31,West,280,0.0,2.0,84,0.00,,,0.00,meteohub,2013-06-24 23:47:00,
2013-06-25 00:52:00,54.0,49.3,30.31,West,280,0.0,2.0,84,0.00,,,0.00,meteohub,2013-06-24 23:52:00,
2013-06-25 00:58:00,54.0,49.6,30.31,West,280,1.0,2.0,85,0.00,,,0.00,meteohub,2013-06-24 23:58:00,
2013-06-25 01:03:00,54.3,49.8,30.31,West,280,0.0,1.0,85,0.00,,,0.00,meteohub,2013-06-25 00:03:00,
2013-06-25 01:12:00,54.3,49.8,30.31,West,280,0.0,2.0,85,0.00,,,0.00,meteohub,2013-06-25 00:12:00,
2013-06-25 01:17:00,54.1,49.8,30.31,West,280,0.0,2.0,85,0.00,,,0.00,meteohub,2013-06-25 00:17:00,
2013-06-25 01:22:00,54.1,50.0,30.31,West,280,0.0,2.0,86,0.00,,,0.00,meteohub,2013-06-25 00:22:00,
2013-06-25 01:30:00,54.1,50.0,30.31,West,280,0.0,2.0,86,0.00,,,0.00,meteohub,2013-06-25 00:30:00,
2013-06-25 01:37:00,54.0,49.8,30.31,West,280,0.0,0.0,86,0.00,,,0.00,meteohub,2013-06-25 00:37:00,
2013-06-25 01:42:00,54.0,49.8,30.31,West,280,0.0,0.0,86,0.00,,,0.00,meteohub,2013-06-25 00:42:00,
2013-06-25 01:47:00,54.1,50.0,30.31,West,280,0.0,0.0,86,0.00,,,0.00,meteohub,2013-06-25 00:47:00,
2013-06-25 01:52:00,54.7,50.5,30.30,West,280,0.0,1.0,86,0.00,,,0.00,meteohub,2013-06-25 00:52:00,
2013-06-25 01:57:00,54.5,50.0,30.30,West,280,0.0,1.0,85,0.00,,,0.00,meteohub,2013-06-25 00:57:00,
2013-06-25 02:02:00,54.1,50.0,30.30,West,280,0.0,1.0,86,0.00,,,0.00,meteohub,2013-06-25 01:02:00,
2013-06-25 02:07:00,54.1,50.0,30.30,West,280,0.0,2.0,86,0.00,,,0.00,meteohub,2013-06-25 01:07:00,
2013-06-25 02:12:00,54.1,50.4,30.31,West,280,0.0,2.0,87,0.00,,,0.00,meteohub,2013-06-25 01:12:00,
2013-06-25 02:17:00,54.0,50.2,30.31,West,280,0.0,2.0,87,0.00,,,0.00,meteohub,2013-06-25 01:17:00,
2013-06-25 02:22:00,54.0,50.2,30.31,West,280,0.0,4.0,87,0.00,,,0.00,meteohub,2013-06-25 01:22:00,
2013-06-25 02:27:00,54.0,50.2,30.30,West,280,0.0,4.0,87,0.00,,,0.00,meteohub,2013-06-25 01:27:00,
2013-06-25 02:32:00,53.8,50.0,30.30,West,280,0.0,4.0,87,0.00,,,0.00,meteohub,2013-06-25 01:32:00,
2013-06-25 02:42:00,54.0,50.2,30.30,West,280,0.0,2.0,87,0.00,,,0.00,meteohub,2013-06-25 01:42:00,
2013-06-25 02:47:00,54.0,50.2,30.31,West,280,0.0,1.0,87,0.00,,,0.00,meteohub,2013-06-25 01:47:00,
2013-06-25 02:52:00,54.0,50.2,30.31,West,280,0.0,1.0,87,0.00,,,0.00,meteohub,2013-06-25 01:52:00,
2013-06-25 02:57:00,53.8,50.0,30.31,West,280,0.0,1.0,87,0.00,,,0.00,meteohub,2013-06-25 01:57:00,
2013-06-25 03:02:00,54.0,50.2,30.31,West,280,0.0,0.0,87,0.00,,,0.00,meteohub,2013-06-25 02:02:00,
2013-06-25 03:07:00,54.1,50.7,30.31,West,280,0.0,1.0,88,0.00,,,0.00,meteohub,2013-06-25 02:07:00,
2013-06-25 03:12:00,54.3,50.5,30.31,West,280,0.0,1.0,87,0.00,,,0.00,meteohub,2013-06-25 02:12:00,
2013-06-25 03:17:00,54.3,50.5,30.31,West,280,0.0,1.0,87,0.00,,,0.00,meteohub,2013-06-25 02:17:00,
2013-06-25 03:25:00,54.3,50.5,30.31,West,280,0.0,1.0,87,0.00,,,0.00,meteohub,2013-06-25 02:25:00,
2013-06-25 03:32:00,54.3,50.9,30.32,West,280,0.0,0.0,88,0.00,,,0.00,meteohub,2013-06-25 02:32:00,
2013-06-25 03:38:00,54.5,51.1,30.32,West,280,0.0,0.0,88,0.00,,,0.00,meteohub,2013-06-25 02:38:00,
2013-06-25 03:47:00,54.7,51.3,30.32,West,280,0.0,2.0,88,0.00,,,0.00,meteohub,2013-06-25 02:47:00,
2013-06-25 03:52:00,54.7,50.9,30.32,West,280,0.0,2.0,87,0.00,,,0.00,meteohub,2013-06-25 02:52:00,
2013-06-25 03:57:00,54.9,51.4,30.32,West,280,0.0,2.0,88,0.00,,,0.00,meteohub,2013-06-25 02:57:00,
2013-06-25 04:02:00,54.9,51.4,30.32,West,280,0.0,2.0,88,0.00,,,0.00,meteohub,2013-06-25 03:02:00,
2013-06-25 04:07:00,54.9,51.4,30.32,West,280,1.0,2.0,88,0.00,,,0.00,meteohub,2013-06-25 03:07:00,
2013-06-25 04:12:00,55.0,51.6,30.32,West,280,0.0,2.0,88,0.00,,,0.00,meteohub,2013-06-25 03:12:00,
2013-06-25 04:17:00,54.9,51.4,30.32,West,280,0.0,2.0,88,0.00,,,0.00,meteohub,2013-06-25 03:17:00,
2013-06-25 04:22:00,55.0,51.6,30.32,West,280,1.0,2.0,88,0.00,,,0.00,meteohub,2013-06-25 03:22:00,
2013-06-25 04:27:00,55.0,51.6,30.32,West,280,0.0,2.0,88,0.00,,,0.00,meteohub,2013-06-25 03:27:00,
2013-06-25 04:35:00,55.0,51.6,30.32,West,280,0.0,2.0,88,0.00,,,0.00,meteohub,2013-06-25 03:35:00,
2013-06-25 04:42:00,55.0,51.6,30.33,West,280,0.0,2.0,88,0.00,,,0.00,meteohub,2013-06-25 03:42:00,
2013-06-25 04:52:00,55.0,51.6,30.33,WSW,258,0.0,6.0,88,0.00,,,0.00,meteohub,2013-06-25 03:52:00,
2013-06-25 04:57:00,55.2,51.8,30.33,WSW,258,0.0,6.0,88,0.00,,,0.00,meteohub,2013-06-25 03:57:00,
2013-06-25 05:02:00,55.2,51.8,30.33,WSW,252,1.0,6.0,88,0.00,,,0.00,meteohub,2013-06-25 04:02:00,
2013-06-25 05:07:00,55.2,51.8,30.33,SW,234,1.0,5.0,88,0.00,,,0.00,meteohub,2013-06-25 04:07:00,
2013-06-25 05:12:00,55.2,51.8,30.33,SW,233,1.0,5.0,88,0.00,,,0.00,meteohub,2013-06-25 04:12:00,
2013-06-25 05:17:00,55.2,51.8,30.33,SW,232,2.0,5.0,88,0.00,,,0.00,meteohub,2013-06-25 04:17:00,
2013-06-25 05:22:00,55.2,51.8,30.33,SW,231,0.0,5.0,88,0.00,,,0.00,meteohub,2013-06-25 04:22:00,
2013-06-25 05:27:00,55.2,51.8,30.33,SSW,207,1.0,5.0,88,0.00,,,0.00,meteohub,2013-06-25 04:27:00,
2013-06-25 05:32:00,55.2,51.8,30.33,SSW,207,0.0,8.0,88,0.00,,,0.00,meteohub,2013-06-25 04:32:00,
2013-06-25 05:37:00,55.2,51.8,30.33,SSW,207,0.0,8.0,88,0.00,,,0.00,meteohub,2013-06-25 04:37:00,
2013-06-25 05:42:00,55.2,51.8,30.34,SSW,207,2.0,5.0,88,0.00,,,0.00,meteohub,2013-06-25 04:42:00,
2013-06-25 05:47:00,55.2,51.8,30.34,SSW,207,1.0,4.0,88,0.00,,,0.00,meteohub,2013-06-25 04:47:00,
2013-06-25 05:52:00,55.2,51.8,30.34,SSW,207,0.0,4.0,88,0.00,,,0.00,meteohub,2013-06-25 04:52:00,
2013-06-25 05:57:00,55.2,51.8,30.34,SSW,207,0.0,4.0,88,0.00,,,0.00,meteohub,2013-06-25 04:57:00,
2013-06-25 06:02:00,55.2,51.8,30.34,SSW,207,0.0,5.0,88,0.00,,,0.00,meteohub,2013-06-25 05:02:00,
2013-06-25 06:07:00,55.4,52.0,30.34,SSW,207,0.0,5.0,88,0.00,,,0.00,meteohub,2013-06-25 05:07:00,
2013-06-25 06:12:00,55.2,52.0,30.34,SSW,207,0.0,5.0,89,0.00,,,0.00,meteohub,2013-06-25 05:12:00,
2013-06-25 06:17:00,55.2,52.0,30.34,SSW,207,0.0,4.0,89,0.00,,,0.00,meteohub,2013-06-25 05:17:00,
2013-06-25 06:22:00,55.2,52.0,30.34,SSW,207,5.0,5.0,89,0.00,,,0.00,meteohub,2013-06-25 05:22:00,
2013-06-25 06:27:00,55.2,52.0,30.34,SSW,207,1.0,6.0,89,0.00,,,0.00,meteohub,2013-06-25 05:27:00,
2013-06-25 06:32:00,55.2,52.0,30.34,SSW,207,0.0,6.0,89,0.00,,,0.00,meteohub,2013-06-25 05:32:00,
2013-06-25 06:37:00,55.6,52.3,30.34,SSW,207,0.0,6.0,89,0.00,,,0.00,meteohub,2013-06-25 05:37:00,
2013-06-25 06:42:00,55.6,52.3,30.34,SSW,207,1.0,5.0,89,0.00,,,0.00,meteohub,2013-06-25 05:42:00,
2013-06-25 06:47:00,55.8,52.5,30.34,SSW,207,4.0,5.0,89,0.00,,,0.00,meteohub,2013-06-25 05:47:00,
2013-06-25 06:52:00,55.8,52.5,30.34,South,175,0.0,6.0,89,0.00,,,0.00,meteohub,2013-06-25 05:52:00,
2013-06-25 06:57:00,55.8,52.5,30.35,South,175,2.0,6.0,89,0.00,,,0.00,meteohub,2013-06-25 05:57:00,
2013-06-25 07:02:00,55.9,52.7,30.35,South,175,0.0,6.0,89,0.00,,,0.00,meteohub,2013-06-25 06:02:00,
2013-06-25 07:07:00,56.1,52.7,30.35,South,175,0.0,4.0,88,0.00,,,0.00,meteohub,2013-06-25 06:07:00,
2013-06-25 07:12:00,56.1,52.7,30.35,South,175,0.0,4.0,88,0.00,,,0.00,meteohub,2013-06-25 06:12:00,
2013-06-25 07:17:00,56.3,52.9,30.35,South,175,0.0,2.0,88,0.00,,,0.00,meteohub,2013-06-25 06:17:00,
2013-06-25 07:22:00,56.5,52.9,30.35,South,175,0.0,5.0,88,0.00,,,0.00,meteohub,2013-06-25 06:22:00,
2013-06-25 07:27:00,56.5,52.9,30.35,South,175,1.0,5.0,88,0.00,,,0.00,meteohub,2013-06-25 06:27:00,
2013-06-25 07:37:00,56.8,53.2,30.35,South,175,1.0,6.0,88,0.00,,,0.00,meteohub,2013-06-25 06:37:00,
2013-06-25 07:42:00,56.8,53.1,30.35,South,175,8.0,8.0,87,0.00,,,0.00,meteohub,2013-06-25 06:42:00,
2013-06-25 07:47:00,57.0,53.2,30.35,South,175,4.0,8.0,87,0.00,,,0.00,meteohub,2013-06-25 06:47:00,
2013-06-25 07:52:00,57.0,53.2,30.35,South,175,4.0,8.0,87,0.00,,,0.00,meteohub,2013-06-25 06:52:00,
2013-06-25 07:57:00,57.4,53.6,30.35,South,175,2.0,8.0,87,0.00,,,0.00,meteohub,2013-06-25 06:57:00,
2013-06-25 08:02:00,57.4,53.6,30.35,SSW,196,5.0,8.0,87,0.00,,,0.00,meteohub,2013-06-25 07:02:00,
2013-06-25 08:07:00,57.6,53.8,30.35,SSW,195,1.0,8.0,87,0.00,,,0.00,meteohub,2013-06-25 07:07:00,
2013-06-25 08:12:00,57.7,53.6,30.35,SSW,195,2.0,8.0,86,0.00,,,0.00,meteohub,2013-06-25 07:12:00,
2013-06-25 08:17:00,57.7,53.6,30.35,South,189,4.0,8.0,86,0.00,,,0.00,meteohub,2013-06-25 07:17:00,
2013-06-25 08:22:00,57.7,53.6,30.36,SSW,193,0.0,6.0,86,0.00,,,0.00,meteohub,2013-06-25 07:22:00,
2013-06-25 08:27:00,57.7,53.2,30.36,SSW,193,2.0,6.0,85,0.00,,,0.00,meteohub,2013-06-25 07:27:00,
2013-06-25 08:32:00,57.9,53.4,30.36,South,190,5.0,8.0,85,0.00,,,0.00,meteohub,2013-06-25 07:32:00,
2013-06-25 08:37:00,58.1,53.6,30.36,South,190,0.0,8.0,85,0.00,,,0.00,meteohub,2013-06-25 07:37:00,
2013-06-25 08:42:00,58.5,53.6,30.36,SSW,196,2.0,8.0,84,0.00,,,0.00,meteohub,2013-06-25 07:42:00,
2013-06-25 08:47:00,58.5,53.6,30.36,SSW,194,0.0,8.0,84,0.00,,,0.00,meteohub,2013-06-25 07:47:00,
2013-06-25 08:52:00,58.6,53.8,30.36,SSW,194,5.0,5.0,84,0.00,,,0.00,meteohub,2013-06-25 07:52:00,
2013-06-25 08:57:00,58.6,53.4,30.36,SSW,192,0.0,6.0,83,0.00,,,0.00,meteohub,2013-06-25 07:57:00,
2013-06-25 09:02:00,58.8,53.6,30.36,SSW,209,2.0,6.0,83,0.00,,,0.00,meteohub,2013-06-25 08:02:00,
2013-06-25 09:07:00,59.5,54.0,30.36,SW,235,2.0,6.0,82,0.00,,,0.00,meteohub,2013-06-25 08:07:00,
2013-06-25 09:12:00,59.4,53.6,30.37,SSW,213,1.0,6.0,81,0.00,,,0.00,meteohub,2013-06-25 08:12:00,
2013-06-25 09:17:00,59.2,53.6,30.37,SW,215,1.0,6.0,82,0.00,,,0.00,meteohub,2013-06-25 08:17:00,
2013-06-25 09:22:00,59.2,53.6,30.37,SW,215,0.0,6.0,82,0.00,,,0.00,meteohub,2013-06-25 08:22:00,
2013-06-25 09:27:00,59.2,53.6,30.37,SW,215,0.0,4.0,82,0.00,,,0.00,meteohub,2013-06-25 08:27:00,
2013-06-25 09:32:00,59.5,54.0,30.37,SW,219,1.0,4.0,82,0.00,,,0.00,meteohub,2013-06-25 08:32:00,
2013-06-25 09:37:00,59.5,54.0,30.37,SW,220,1.0,4.0,82,0.00,,,0.00,meteohub,2013-06-25 08:37:00,
2013-06-25 09:42:00,59.9,54.3,30.36,WSW,249,0.0,4.0,82,0.00,,,0.00,meteohub,2013-06-25 08:42:00,
2013-06-25 09:47:00,60.1,54.0,30.36,WSW,249,2.0,5.0,80,0.00,,,0.00,meteohub,2013-06-25 08:47:00,
2013-06-25 09:52:00,60.1,53.6,30.36,WSW,249,0.0,5.0,79,0.00,,,0.00,meteohub,2013-06-25 08:52:00,
2013-06-25 09:57:00,60.1,54.3,30.36,WSW,250,1.0,5.0,81,0.00,,,0.00,meteohub,2013-06-25 08:57:00,
2013-06-25 10:02:00,60.6,54.1,30.37,West,262,0.0,5.0,79,0.00,,,0.00,meteohub,2013-06-25 09:02:00,
2013-06-25 10:07:00,60.6,53.8,30.37,West,262,4.0,5.0,78,0.00,,,0.00,meteohub,2013-06-25 09:07:00,
2013-06-25 10:12:00,60.4,53.6,30.37,West,263,1.0,5.0,78,0.00,,,0.00,meteohub,2013-06-25 09:12:00,
2013-06-25 10:22:00,60.8,54.3,30.37,West,269,1.0,5.0,79,0.00,,,0.00,meteohub,2013-06-25 09:22:00,
2013-06-25 10:27:00,61.0,54.5,30.37,West,274,1.0,5.0,79,0.00,,,0.00,meteohub,2013-06-25 09:27:00,
2013-06-25 10:32:00,61.0,54.5,30.37,West,274,4.0,5.0,79,0.00,,,0.00,meteohub,2013-06-25 09:32:00,
2013-06-25 10:37:00,60.8,54.0,30.38,West,269,0.0,5.0,78,0.00,,,0.00,meteohub,2013-06-25 09:37:00,
2013-06-25 10:42:00,60.3,54.7,30.38,WSW,257,2.0,6.0,82,0.00,,,0.00,meteohub,2013-06-25 09:42:00,
2013-06-25 10:47:00,59.2,54.7,30.38,WSW,246,1.0,8.0,85,0.00,,,0.00,meteohub,2013-06-25 09:47:00,
2013-06-25 10:52:00,58.8,55.0,30.38,WSW,249,0.0,8.0,87,0.00,,,0.00,meteohub,2013-06-25 09:52:00,
2013-06-25 10:57:00,58.5,54.3,30.38,WSW,249,0.0,8.0,86,0.00,,,0.00,meteohub,2013-06-25 09:57:00,
2013-06-25 11:02:00,58.5,54.7,30.38,WSW,249,0.0,4.0,87,0.00,,,0.00,meteohub,2013-06-25 10:02:00,
2013-06-25 11:07:00,58.8,55.0,30.38,WSW,249,2.0,4.0,87,0.00,,,0.00,meteohub,2013-06-25 10:07:00,
2013-06-25 11:12:00,58.8,54.7,30.38,WSW,249,0.0,4.0,86,0.00,,,0.00,meteohub,2013-06-25 10:12:00,
2013-06-25 11:17:00,59.2,54.3,30.38,WSW,249,2.0,4.0,84,0.00,,,0.00,meteohub,2013-06-25 10:17:00,
2013-06-25 11:22:00,59.5,54.7,30.38,WSW,250,0.0,4.0,84,0.00,,,0.00,meteohub,2013-06-25 10:22:00,
2013-06-25 11:27:00,60.3,55.4,30.38,WNW,285,2.0,6.0,84,0.00,,,0.00,meteohub,2013-06-25 10:27:00,
2013-06-25 11:37:00,61.0,55.4,30.38,West,281,1.0,6.0,82,0.00,,,0.00,meteohub,2013-06-25 10:37:00,
2013-06-25 11:42:00,61.0,54.7,30.38,West,261,0.0,5.0,80,0.00,,,0.00,meteohub,2013-06-25 10:42:00,
2013-06-25 11:47:00,60.8,54.9,30.38,West,261,1.0,5.0,81,0.00,,,0.00,meteohub,2013-06-25 10:47:00,
2013-06-25 11:57:00,60.4,54.5,30.38,SSW,208,4.0,5.0,81,0.00,,,0.00,meteohub,2013-06-25 10:57:00,
2013-06-25 12:02:00,61.2,55.2,30.38,South,188,0.0,5.0,81,0.00,,,0.00,meteohub,2013-06-25 11:02:00,
2013-06-25 12:07:00,61.2,54.7,30.38,South,188,1.0,5.0,79,0.00,,,0.00,meteohub,2013-06-25 11:07:00,
2013-06-25 12:12:00,61.2,54.7,30.39,SW,215,0.0,5.0,79,0.00,,,0.00,meteohub,2013-06-25 11:12:00,
2013-06-25 12:17:00,61.3,54.9,30.38,SW,232,0.0,5.0,79,0.00,,,0.00,meteohub,2013-06-25 11:17:00,
2013-06-25 12:22:00,61.5,54.9,30.39,SSW,200,1.0,8.0,79,0.00,,,0.00,meteohub,2013-06-25 11:22:00,
2013-06-25 12:27:00,62.1,55.8,30.39,WNW,298,0.0,8.0,80,0.00,,,0.00,meteohub,2013-06-25 11:27:00,
2013-06-25 12:32:00,62.4,55.8,30.39,SW,229,2.0,8.0,79,0.00,,,0.00,meteohub,2013-06-25 11:32:00,
2013-06-25 12:37:00,62.1,54.7,30.38,WSW,245,0.0,6.0,77,0.00,,,0.00,meteohub,2013-06-25 11:37:00,
2013-06-25 12:42:00,62.6,55.6,30.39,WSW,241,2.0,6.0,78,0.00,,,0.00,meteohub,2013-06-25 11:42:00,
2013-06-25 12:47:00,63.7,56.3,30.39,West,271,1.0,8.0,77,0.00,,,0.00,meteohub,2013-06-25 11:47:00,
2013-06-25 12:52:00,63.9,56.1,30.38,West,259,2.0,8.0,76,0.00,,,0.00,meteohub,2013-06-25 11:52:00,
2013-06-25 12:57:00,64.0,56.3,30.38,WNW,284,0.0,8.0,76,0.00,,,0.00,meteohub,2013-06-25 11:57:00,
2013-06-25 13:02:00,64.2,56.5,30.39,WSW,253,4.0,10.0,76,0.00,,,0.00,meteohub,2013-06-25 12:02:00,
2013-06-25 13:07:00,63.3,55.2,30.39,WSW,254,0.0,10.0,75,0.00,,,0.00,meteohub,2013-06-25 12:07:00,
2013-06-25 13:12:00,63.1,55.4,30.39,WSW,244,5.0,6.0,76,0.00,,,0.00,meteohub,2013-06-25 12:12:00,
2013-06-25 13:17:00,63.7,55.9,30.39,SW,235,4.0,9.0,76,0.00,,,0.00,meteohub,2013-06-25 12:17:00,
2013-06-25 13:22:00,63.1,55.8,30.40,NW,304,4.0,9.0,77,0.00,,,0.00,meteohub,2013-06-25 12:22:00,
2013-06-25 13:27:00,63.1,56.1,30.40,SW,234,6.0,9.0,78,0.00,,,0.00,meteohub,2013-06-25 12:27:00,
2013-06-25 13:32:00,63.0,55.9,30.40,WSW,242,4.0,9.0,78,0.00,,,0.00,meteohub,2013-06-25 12:32:00,
2013-06-25 13:37:00,62.6,55.6,30.40,WSW,254,2.0,10.0,78,0.00,,,0.00,meteohub,2013-06-25 12:37:00,
2013-06-25 13:42:00,62.8,56.1,30.40,West,262,4.0,13.0,79,0.00,,,0.00,meteohub,2013-06-25 12:42:00,
2013-06-25 13:47:00,62.2,55.6,30.40,WSW,255,2.0,13.0,79,0.00,,,0.00,meteohub,2013-06-25 12:47:00,
2013-06-25 13:52:00,62.1,56.1,30.40,WSW,249,2.0,10.0,81,0.00,,,0.00,meteohub,2013-06-25 12:52:00,
2013-06-25 13:57:00,62.8,56.8,30.40,SW,229,2.0,10.0,81,0.00,,,0.00,meteohub,2013-06-25 12:57:00,
2013-06-25 14:02:00,63.0,56.3,30.40,NNW,331,1.0,10.0,79,0.00,,,0.00,meteohub,2013-06-25 13:02:00,
2013-06-25 14:07:00,62.6,56.3,30.41,SSE,151,1.0,10.0,80,0.00,,,0.00,meteohub,2013-06-25 13:07:00,
2013-06-25 14:12:00,62.8,55.8,30.41,SW,222,1.0,10.0,78,0.00,,,0.00,meteohub,2013-06-25 13:12:00,
2013-06-25 14:17:00,63.3,56.7,30.41,WNW,294,1.0,9.0,79,0.00,,,0.00,meteohub,2013-06-25 13:17:00,
2013-06-25 14:22:00,63.9,56.5,30.41,WSW,242,5.0,10.0,77,0.00,,,0.00,meteohub,2013-06-25 13:22:00,
2013-06-25 14:27:00,63.9,56.8,30.41,SSW,211,2.0,10.0,78,0.00,,,0.00,meteohub,2013-06-25 13:27:00,
2013-06-25 14:32:00,64.8,57.7,30.41,South,190,2.0,10.0,78,0.00,,,0.00,meteohub,2013-06-25 13:32:00,
2013-06-25 14:37:00,64.8,56.7,30.41,South,175,4.0,9.0,75,0.00,,,0.00,meteohub,2013-06-25 13:37:00,
2013-06-25 14:42:00,64.9,57.2,30.41,SSW,208,5.0,14.0,76,0.00,,,0.00,meteohub,2013-06-25 13:42:00,
2013-06-25 14:47:00,65.8,58.1,30.41,WNW,290,4.0,14.0,76,0.00,,,0.00,meteohub,2013-06-25 13:47:00,
2013-06-25 14:52:00,66.7,59.0,30.41,SW,225,6.0,14.0,76,0.00,,,0.00,meteohub,2013-06-25 13:52:00,
2013-06-25 14:57:00,66.0,57.9,30.41,WSW,257,4.0,15.0,75,0.00,,,0.00,meteohub,2013-06-25 13:57:00,
2013-06-25 15:02:00,64.6,57.6,30.41,South,184,1.0,15.0,78,0.00,,,0.00,meteohub,2013-06-25 14:02:00,
2013-06-25 15:12:00,63.9,57.6,30.41,WSW,238,2.0,11.0,80,0.00,,,0.00,meteohub,2013-06-25 14:12:00,
2013-06-25 15:17:00,63.9,57.9,30.42,West,270,4.0,11.0,81,0.00,,,0.00,meteohub,2013-06-25 14:17:00,
2013-06-25 15:22:00,63.9,58.3,30.42,SSW,197,1.0,11.0,82,0.00,,,0.00,meteohub,2013-06-25 14:22:00,
2013-06-25 15:27:00,63.7,57.7,30.42,SSW,198,1.0,11.0,81,0.00,,,0.00,meteohub,2013-06-25 14:27:00,
2013-06-25 15:32:00,63.7,57.7,30.42,South,180,4.0,11.0,81,0.00,,,0.00,meteohub,2013-06-25 14:32:00,
2013-06-25 15:37:00,63.9,57.6,30.42,WSW,243,5.0,11.0,80,0.00,,,0.00,meteohub,2013-06-25 14:37:00,
2013-06-25 15:42:00,63.9,57.6,30.42,SSW,203,4.0,14.0,80,0.00,,,0.00,meteohub,2013-06-25 14:42:00,
2013-06-25 15:47:00,62.8,56.8,30.42,West,274,1.0,14.0,81,0.00,,,0.00,meteohub,2013-06-25 14:47:00,
2013-06-25 15:52:00,62.2,56.7,30.42,SW,232,4.0,14.0,82,0.00,,,0.00,meteohub,2013-06-25 14:52:00,
2013-06-25 15:57:00,62.1,56.5,30.42,South,174,0.0,11.0,82,0.00,,,0.00,meteohub,2013-06-25 14:57:00,
2013-06-25 16:02:00,62.1,56.5,30.41,SW,235,1.0,11.0,82,0.00,,,0.00,meteohub,2013-06-25 15:02:00,
2013-06-25 16:07:00,62.2,56.7,30.42,WNW,303,2.0,11.0,82,0.00,,,0.00,meteohub,2013-06-25 15:07:00,
2013-06-25 16:12:00,62.1,56.5,30.42,SW,230,4.0,11.0,82,0.00,,,0.00,meteohub,2013-06-25 15:12:00,
2013-06-25 16:17:00,61.9,56.7,30.42,WNW,300,6.0,11.0,83,0.00,,,0.00,meteohub,2013-06-25 15:17:00,
2013-06-25 16:22:00,61.9,56.3,30.42,West,268,4.0,13.0,82,0.00,,,0.00,meteohub,2013-06-25 15:22:00,
2013-06-25 16:32:00,61.7,57.7,30.42,SSW,198,5.0,11.0,87,0.00,,,0.00,meteohub,2013-06-25 15:32:00,
2013-06-25 16:37:00,61.9,58.3,30.42,SSW,205,2.0,10.0,88,0.00,,,0.00,meteohub,2013-06-25 15:37:00,
2013-06-25 16:42:00,61.9,57.9,30.42,SW,233,2.0,10.0,87,0.00,,,0.00,meteohub,2013-06-25 15:42:00,
2013-06-25 16:47:00,62.1,58.1,30.42,SW,229,2.0,10.0,87,0.00,,,0.00,meteohub,2013-06-25 15:47:00,
2013-06-25 16:52:00,62.1,57.7,30.42,SE,133,2.0,9.0,86,0.00,,,0.00,meteohub,2013-06-25 15:52:00,
2013-06-25 16:57:00,61.9,57.6,30.42,SSW,198,2.0,10.0,86,0.00,,,0.00,meteohub,2013-06-25 15:57:00,
2013-06-25 17:07:00,63.0,57.0,30.43,SW,228,1.0,10.0,81,0.00,,,0.00,meteohub,2013-06-25 16:07:00,
2013-06-25 17:12:00,62.8,56.8,30.43,West,260,0.0,11.0,81,0.00,,,0.00,meteohub,2013-06-25 16:12:00,
2013-06-25 17:17:00,62.6,57.4,30.43,West,259,2.0,11.0,83,0.00,,,0.00,meteohub,2013-06-25 16:17:00,
2013-06-25 17:22:00,62.8,56.8,30.43,SW,231,1.0,11.0,81,0.00,,,0.00,meteohub,2013-06-25 16:22:00,
2013-06-25 17:27:00,62.2,56.3,30.43,NW,323,1.0,9.0,81,0.00,,,0.00,meteohub,2013-06-25 16:27:00,
2013-06-25 17:37:00,62.1,56.1,30.43,NW,304,4.0,11.0,81,0.00,,,0.00,meteohub,2013-06-25 16:37:00,
2013-06-25 17:47:00,61.9,55.9,30.43,West,278,1.0,13.0,81,0.00,,,0.00,meteohub,2013-06-25 16:47:00,
2013-06-25 17:52:00,61.9,55.9,30.43,NW,312,4.0,13.0,81,0.00,,,0.00,meteohub,2013-06-25 16:52:00,
2013-06-25 17:57:00,62.4,56.5,30.43,WNW,295,4.0,10.0,81,0.00,,,0.00,meteohub,2013-06-25 16:57:00,
2013-06-25 18:07:00,62.4,56.5,30.43,NNW,329,1.0,10.0,81,0.00,,,0.00,meteohub,2013-06-25 17:07:00,
2013-06-25 18:12:00,62.8,56.5,30.43,SW,236,2.0,9.0,80,0.00,,,0.00,meteohub,2013-06-25 17:12:00,
2013-06-25 18:17:00,62.8,56.5,30.43,SW,229,2.0,11.0,80,0.00,,,0.00,meteohub,2013-06-25 17:17:00,
2013-06-25 18:22:00,62.6,56.3,30.43,SW,229,1.0,11.0,80,0.00,,,0.00,meteohub,2013-06-25 17:22:00,
2013-06-25 18:27:00,62.6,56.3,30.43,NW,317,4.0,9.0,80,0.00,,,0.00,meteohub,2013-06-25 17:27:00,
2013-06-25 18:32:00,62.4,56.1,30.43,West,275,1.0,9.0,80,0.00,,,0.00,meteohub,2013-06-25 17:32:00,
2013-06-25 18:42:00,62.4,56.1,30.43,WNW,296,6.0,9.0,80,0.00,,,0.00,meteohub,2013-06-25 17:42:00,
2013-06-25 18:47:00,62.2,54.9,30.43,West,279,14.0,14.0,77,0.00,,,0.00,meteohub,2013-06-25 17:47:00,
2013-06-25 18:52:00,62.1,54.3,30.43,WNW,293,5.0,14.0,76,0.00,,,0.00,meteohub,2013-06-25 17:52:00,
2013-06-25 18:57:00,61.9,54.3,30.44,WNW,288,9.0,14.0,76,0.00,,,0.00,meteohub,2013-06-25 17:57:00,
2013-06-25 19:02:00,61.7,54.1,30.44,West,278,5.0,14.0,76,0.00,,,0.00,meteohub,2013-06-25 18:02:00,
2013-06-25 19:07:00,61.5,54.0,30.44,NNW,331,4.0,13.0,76,0.00,,,0.00,meteohub,2013-06-25 18:07:00,
2013-06-25 19:12:00,61.3,53.8,30.44,West,275,5.0,13.0,76,0.00,,,0.00,meteohub,2013-06-25 18:12:00,
2013-06-25 19:17:00,61.2,53.6,30.44,West,281,4.0,10.0,76,0.00,,,0.00,meteohub,2013-06-25 18:17:00,
2013-06-25 19:22:00,61.0,53.4,30.44,NW,324,4.0,11.0,76,0.00,,,0.00,meteohub,2013-06-25 18:22:00,
2013-06-25 19:32:00,61.2,52.9,30.44,NW,304,2.0,10.0,74,0.00,,,0.00,meteohub,2013-06-25 18:32:00,
2013-06-25 19:37:00,61.2,52.5,30.44,WNW,286,2.0,10.0,73,0.00,,,0.00,meteohub,2013-06-25 18:37:00,
2013-06-25 19:42:00,61.2,52.9,30.45,WNW,286,2.0,9.0,74,0.00,,,0.00,meteohub,2013-06-25 18:42:00,
2013-06-25 19:47:00,61.2,52.5,30.45,NW,325,2.0,9.0,73,0.00,,,0.00,meteohub,2013-06-25 18:47:00,
2013-06-25 19:52:00,61.2,52.0,30.45,NW,314,4.0,10.0,72,0.00,,,0.00,meteohub,2013-06-25 18:52:00,
2013-06-25 20:02:00,61.0,51.4,30.45,NW,308,4.0,8.0,71,0.00,,,0.00,meteohub,2013-06-25 19:02:00,
2013-06-25 20:07:00,60.8,50.9,30.45,WNW,286,2.0,9.0,70,0.00,,,0.00,meteohub,2013-06-25 19:07:00,
2013-06-25 20:12:00,60.6,50.7,30.45,NW,313,8.0,9.0,70,0.00,,,0.00,meteohub,2013-06-25 19:12:00,
2013-06-25 20:17:00,60.6,50.7,30.45,North,0,5.0,9.0,70,0.00,,,0.00,meteohub,2013-06-25 19:17:00,
2013-06-25 20:22:00,60.6,50.7,30.45,North,0,2.0,9.0,70,0.00,,,0.00,meteohub,2013-06-25 19:22:00,
2013-06-25 20:27:00,60.6,50.7,30.45,North,5,4.0,9.0,70,0.00,,,0.00,meteohub,2013-06-25 19:27:00,
2013-06-25 20:32:00,60.4,51.1,30.46,NNW,338,2.0,9.0,71,0.00,,,0.00,meteohub,2013-06-25 19:32:00,
2013-06-25 20:37:00,60.4,51.1,30.45,NNW,332,8.0,9.0,71,0.00,,,0.00,meteohub,2013-06-25 19:37:00,
2013-06-25 20:42:00,60.4,51.1,30.45,North,355,6.0,9.0,71,0.00,,,0.00,meteohub,2013-06-25 19:42:00,
2013-06-25 20:47:00,60.4,51.4,30.46,NNW,346,4.0,10.0,72,0.00,,,0.00,meteohub,2013-06-25 19:47:00,
2013-06-25 20:52:00,60.3,51.3,30.46,NNW,334,5.0,10.0,72,0.00,,,0.00,meteohub,2013-06-25 19:52:00,
2013-06-25 20:57:00,60.3,51.3,30.46,NNW,345,2.0,10.0,72,0.00,,,0.00,meteohub,2013-06-25 19:57:00,
2013-06-25 21:02:00,60.3,51.3,30.46,NW,322,4.0,9.0,72,0.00,,,0.00,meteohub,2013-06-25 20:02:00,
2013-06-25 21:07:00,60.1,51.1,30.46,NW,317,6.0,9.0,72,0.00,,,0.00,meteohub,2013-06-25 20:07:00,
2013-06-25 21:12:00,60.1,51.1,30.46,NNW,338,4.0,9.0,72,0.00,,,0.00,meteohub,2013-06-25 20:12:00,
2013-06-25 21:17:00,60.1,51.4,30.46,NNW,335,2.0,9.0,73,0.00,,,0.00,meteohub,2013-06-25 20:17:00,
2013-06-25 21:22:00,59.9,51.3,30.46,NNW,338,2.0,8.0,73,0.00,,,0.00,meteohub,2013-06-25 20:22:00,
2013-06-25 21:27:00,59.7,51.1,30.46,NNW,344,5.0,8.0,73,0.00,,,0.00,meteohub,2013-06-25 20:27:00,
2013-06-25 21:32:00,59.7,51.4,30.47,NNW,346,4.0,6.0,74,0.00,,,0.00,meteohub,2013-06-25 20:32:00,
2013-06-25 21:37:00,59.5,51.3,30.47,NNW,346,2.0,6.0,74,0.00,,,0.00,meteohub,2013-06-25 20:37:00,
2013-06-25 21:47:00,59.4,51.4,30.47,NNW,346,1.0,5.0,75,0.00,,,0.00,meteohub,2013-06-25 20:47:00,
2013-06-25 21:52:00,59.4,51.4,30.47,NNW,346,1.0,5.0,75,0.00,,,0.00,meteohub,2013-06-25 20:52:00,
2013-06-25 21:57:00,59.2,51.6,30.47,NNW,346,0.0,5.0,76,0.00,,,0.00,meteohub,2013-06-25 20:57:00,
2013-06-25 22:02:00,59.2,51.6,30.48,NNW,346,4.0,5.0,76,0.00,,,0.00,meteohub,2013-06-25 21:02:00,
2013-06-25 22:07:00,58.8,51.3,30.48,NNW,346,1.0,4.0,76,0.00,,,0.00,meteohub,2013-06-25 21:07:00,
2013-06-25 22:12:00,58.8,51.6,30.48,NNW,346,2.0,4.0,77,0.00,,,0.00,meteohub,2013-06-25 21:12:00,
2013-06-25 22:17:00,58.8,51.6,30.48,NNW,346,2.0,4.0,77,0.00,,,0.00,meteohub,2013-06-25 21:17:00,
2013-06-25 22:27:00,58.6,51.1,30.48,NNW,346,1.0,5.0,76,0.00,,,0.00,meteohub,2013-06-25 21:27:00,
2013-06-25 22:32:00,58.6,51.4,30.48,NNW,346,1.0,5.0,77,0.00,,,0.00,meteohub,2013-06-25 21:32:00,
2013-06-25 22:37:00,58.6,51.4,30.49,NNW,346,0.0,5.0,77,0.00,,,0.00,meteohub,2013-06-25 21:37:00,
2013-06-25 22:42:00,58.6,51.4,30.49,NNW,346,0.0,4.0,77,0.00,,,0.00,meteohub,2013-06-25 21:42:00,
2013-06-25 22:52:00,58.5,51.3,30.49,NNW,346,2.0,5.0,77,0.00,,,0.00,meteohub,2013-06-25 21:52:00,
2013-06-25 22:57:00,58.5,51.3,30.49,NNW,346,0.0,5.0,77,0.00,,,0.00,meteohub,2013-06-25 21:57:00,
2013-06-25 23:02:00,58.5,51.6,30.49,NNW,346,0.0,4.0,78,0.00,,,0.00,meteohub,2013-06-25 22:02:00,
2013-06-25 23:07:00,58.5,51.6,30.49,NNW,346,0.0,4.0,78,0.00,,,0.00,meteohub,2013-06-25 22:07:00,
2013-06-25 23:12:00,58.3,51.4,30.49,NNW,346,1.0,4.0,78,0.00,,,0.00,meteohub,2013-06-25 22:12:00,
2013-06-25 23:17:00,58.5,51.6,30.49,NNW,346,1.0,4.0,78,0.00,,,0.00,meteohub,2013-06-25 22:17:00,
2013-06-25 23:22:00,58.3,51.4,30.49,NNW,346,1.0,4.0,78,0.00,,,0.00,meteohub,2013-06-25 22:22:00,
2013-06-25 23:27:00,58.3,51.4,30.49,NNW,346,4.0,4.0,78,0.00,,,0.00,meteohub,2013-06-25 22:27:00,
2013-06-25 23:32:00,58.3,51.4,30.49,NNW,346,4.0,5.0,78,0.00,,,0.00,meteohub,2013-06-25 22:32:00,
2013-06-25 23:42:00,57.9,51.1,30.49,NNW,346,1.0,5.0,78,0.00,,,0.00,meteohub,2013-06-25 22:42:00,
2013-06-25 23:52:00,57.7,50.9,30.50,NNW,342,0.0,5.0,78,0.00,,,0.00,meteohub,2013-06-25 22:52:00,
2013-06-25 23:57:00,57.7,50.9,30.50,NNW,342,1.0,5.0,78,0.00,,,0.00,meteohub,2013-06-25 22:57:00,